createdAt,value
2018-11-10T00:06:08.650Z,76.07
2018-11-10T00:16:30.593Z,71.70
2018-11-10T00:26:57.204Z,60.40
2018-11-10T00:37:16.776Z,72.87
2018-11-10T00:47:36.373Z,60.17
2018-11-10T00:57:55.246Z,61.73
2018-11-10T01:08:14.544Z,67.43
2018-11-10T01:18:35.651Z,73.87
2018-11-10T01:28:54.613Z,64.93
2018-11-10T01:39:13.780Z,65.67
2018-11-10T01:49:32.668Z,55.80
2018-11-10T01:59:51.437Z,51.50
2018-11-10T02:10:11.485Z,47.97
2018-11-10T02:20:30.548Z,55.70
2018-11-10T02:30:49.069Z,54.13
2018-11-10T02:41:08.308Z,50.40
2018-11-10T02:51:28.465Z,53.10
2018-11-10T03:01:47.513Z,55.93
2018-11-10T03:12:06.262Z,51.57
2018-11-10T03:22:24.986Z,56.50
2018-11-10T03:32:43.598Z,49.13
2018-11-10T03:43:02.338Z,56.80
2018-11-10T03:53:20.993Z,44.13
2018-11-10T04:03:40.536Z,47.07
2018-11-10T04:13:59.437Z,43.57
2018-11-10T04:24:18.115Z,43.17
2018-11-10T04:34:36.873Z,39.03
2018-11-10T04:44:56.337Z,39.90
2018-11-10T04:55:15.615Z,54.97
2018-11-10T05:05:35.256Z,45.23
2018-11-10T05:15:54.375Z,42.00
2018-11-10T05:26:13.715Z,44.67
2018-11-10T05:36:33.415Z,52.43
2018-11-10T05:46:52.893Z,47.60
2018-11-10T05:57:12.436Z,41.43
2018-11-10T06:07:32.944Z,40.33
2018-11-10T06:17:52.653Z,33.30
2018-11-10T06:28:12.407Z,27.37
2018-11-10T06:38:37.000Z,29.90
2018-11-10T06:49:04.931Z,32.13
2018-11-10T06:59:26.185Z,29.37
2018-11-10T07:09:47.812Z,33.47
2018-11-10T07:20:07.607Z,30.97
2018-11-10T07:30:29.037Z,28.47
2018-11-10T07:40:48.395Z,34.37
2018-11-10T07:51:07.825Z,28.67
2018-11-10T08:01:28.517Z,29.37
2018-11-10T08:11:47.501Z,28.93
2018-11-10T08:22:06.552Z,24.33
2018-11-10T08:32:25.560Z,25.07
2018-11-10T08:42:44.634Z,28.90
2018-11-10T08:52:44.754Z,26.47
2018-11-10T09:02:44.985Z,25.43
2018-11-10T09:12:45.140Z,29.10
2018-11-10T09:22:45.304Z,22.23
2018-11-10T09:32:45.422Z,26.37
2018-11-10T09:42:45.750Z,29.57
2018-11-10T09:52:45.746Z,24.53
2018-11-10T10:02:46.291Z,33.37
2018-11-10T10:09:35.593Z,30.92
2018-11-10T10:09:59.654Z,24.72
2018-11-10T10:10:23.666Z,23.80
2018-11-10T10:10:47.689Z,25.20
2018-11-10T10:11:11.685Z,25.95
2018-11-10T10:11:35.803Z,23.22
2018-11-10T10:21:35.966Z,25.00
2018-11-10T10:31:36.106Z,31.30
2018-11-10T10:41:36.559Z,39.33
2018-11-10T10:51:36.678Z,37.13
2018-11-10T11:01:55.084Z,31.20
2018-11-10T11:11:55.214Z,32.27
2018-11-10T11:21:55.389Z,32.57
2018-11-10T11:31:55.740Z,29.33
2018-11-10T11:41:55.815Z,20.70
2018-11-10T11:51:55.848Z,71.73
2018-11-10T12:01:56.255Z,31.27
2018-11-10T12:11:56.481Z,70.00
2018-11-10T12:21:56.674Z,65.43
2018-11-10T12:37:58.356Z,46.00
2018-11-10T12:47:58.488Z,35.23
2018-11-10T12:57:58.807Z,34.70
2018-11-10T13:07:58.965Z,36.10
2018-11-10T13:17:59.282Z,38.40
2018-11-10T13:27:59.377Z,40.60
2018-11-10T13:37:59.471Z,42.53
2018-11-10T13:47:59.597Z,43.27
2018-11-10T13:57:59.895Z,41.80
2018-11-10T14:08:00.035Z,49.90
2018-11-10T14:18:00.863Z,53.47
2018-11-10T14:28:01.001Z,57.60
2018-11-10T14:38:01.156Z,54.70
2018-11-10T14:48:01.212Z,78.60
2018-11-10T14:58:01.374Z,116.47
2018-11-10T15:08:01.530Z,137.13
2018-11-10T15:19:20.277Z,153.27
2018-11-10T15:29:20.417Z,179.07
2018-11-10T15:39:21.041Z,217.43
2018-11-10T15:49:21.764Z,227.10
2018-11-10T15:59:22.174Z,314.77
2018-11-10T16:09:23.664Z,269.20
2018-11-10T16:19:24.046Z,195.20
2018-11-10T16:29:24.297Z,425.00
2018-11-10T16:39:25.156Z,242.03
2018-11-10T16:49:25.260Z,289.07
2018-11-10T16:59:25.340Z,375.83
2018-11-10T17:09:25.409Z,224.40
2018-11-10T17:19:25.519Z,317.10
2018-11-10T17:29:25.618Z,211.67
2018-11-10T17:39:25.909Z,240.70
2018-11-10T17:49:25.763Z,245.80
2018-11-10T17:59:25.813Z,345.23
2018-11-10T18:09:25.863Z,268.63
2018-11-10T18:19:25.968Z,276.70
2018-11-10T18:29:26.129Z,230.73
2018-11-10T18:39:26.231Z,168.50
2018-11-10T18:49:26.230Z,166.70
2018-11-10T18:59:26.283Z,153.57
2018-11-10T19:09:26.365Z,158.03
2018-11-10T19:19:26.448Z,152.40
2018-11-10T19:29:26.502Z,165.17
2018-11-10T19:39:26.559Z,142.70
2018-11-10T19:49:26.609Z,151.47
2018-11-10T19:59:26.688Z,153.47
2018-11-10T20:09:26.779Z,163.13
2018-11-10T20:19:26.858Z,150.30
2018-11-10T20:29:26.915Z,157.90
2018-11-10T20:39:26.963Z,165.47
2018-11-10T20:49:27.018Z,180.67
2018-11-10T20:59:27.412Z,149.33
2018-11-10T21:09:32.346Z,157.93
2018-11-10T21:19:34.663Z,165.43
2018-11-10T21:29:47.684Z,151.43
2018-11-10T21:40:27.556Z,141.17
2018-11-10T21:50:53.506Z,194.50
2018-11-10T22:01:13.158Z,144.87
2018-11-10T22:11:31.769Z,149.80
2018-11-10T22:21:50.752Z,133.90
2018-11-10T22:32:10.272Z,128.07
2018-11-10T22:42:29.327Z,129.10
2018-11-10T22:52:48.153Z,129.53
2018-11-10T23:03:06.662Z,96.20
2018-11-10T23:13:25.780Z,67.43
2018-11-10T23:23:44.403Z,45.47
2018-11-10T23:34:03.185Z,42.90
2018-11-10T23:44:21.814Z,37.80
2018-11-10T23:54:40.529Z,34.43
